Terminal Aerodrome Forecast
Issued by NWS Pueblo, CO

Home | Current Version | Previous Version | Text Only | Print | Product List | Glossary On
Versions: 1 2 3 4 5 6 7 8 9 10 11 12 13 14 15 16 17 18 19 20 21 22 23 24 25 26 27 28 29 30 31 32 33 34
000
FTUS45 KPUB 161130
TAFPUB
TAF
KPUB 161130Z 1612/1712 VRB03KT 3SM BR OVC002
      TEMPO 1612/1615 6SM BR OVC005
     FM161500 VRB05KT P6SM FEW030 SCT060 SCT130
     FM161800 09010KT P6SM FEW060 SCT110 SCT150
     FM170300 VRB06KT P6SM FEW050 SCT130=

USA.gov is the U.S. government's official web portal to all federal, state and local government web resources and services.